createdAt,value
2023-02-16T00:01:26.364Z,34.17
2023-02-16T00:03:56.945Z,36.42
2023-02-16T00:06:25.953Z,33.70
2023-02-16T00:08:55.409Z,33.92
2023-02-16T00:11:45.365Z,34.63
2023-02-16T00:14:14.374Z,33.60
2023-02-16T00:16:42.869Z,34.67
2023-02-16T00:19:19.052Z,34.13
2023-02-16T00:21:47.503Z,35.38
2023-02-16T00:24:15.639Z,34.35
2023-02-16T00:26:44.218Z,34.75
2023-02-16T00:29:18.021Z,35.58
2023-02-16T00:31:46.382Z,34.22
2023-02-16T00:34:28.102Z,33.30
2023-02-16T00:36:57.470Z,34.95
2023-02-16T00:39:26.371Z,33.50
2023-02-16T00:41:56.528Z,33.60
2023-02-16T00:44:34.068Z,33.72
2023-02-16T00:47:12.814Z,34.20
2023-02-16T00:49:43.217Z,34.40
2023-02-16T00:52:28.616Z,33.90
2023-02-16T00:54:56.786Z,35.03
2023-02-16T00:57:25.676Z,33.22
2023-02-16T00:59:59.504Z,34.88
2023-02-16T01:02:27.661Z,34.95
2023-02-16T01:04:58.220Z,34.42
2023-02-16T01:07:43.673Z,34.22
2023-02-16T01:10:30.813Z,33.70
2023-02-16T01:12:59.336Z,31.67
2023-02-16T01:15:28.500Z,34.45
2023-02-16T01:17:56.781Z,33.60
2023-02-16T01:20:28.296Z,33.25
2023-02-16T01:22:56.388Z,34.50
2023-02-16T01:25:25.004Z,34.83
2023-02-16T01:27:54.339Z,33.63
2023-02-16T01:30:24.413Z,33.75
2023-02-16T01:32:53.267Z,34.50
2023-02-16T01:35:22.059Z,33.63
2023-02-16T01:37:52.420Z,33.85
2023-02-16T01:40:35.524Z,33.85
2023-02-16T01:43:07.981Z,34.00
2023-02-16T01:45:38.953Z,33.42
2023-02-16T01:48:13.850Z,34.92
2023-02-16T01:50:49.874Z,32.03
2023-02-16T01:53:25.180Z,34.38
2023-02-16T01:55:57.941Z,35.15
2023-02-16T01:58:34.935Z,33.53
2023-02-16T02:01:58.976Z,35.00
2023-02-16T02:04:52.479Z,35.10
2023-02-16T02:07:27.787Z,35.33
2023-02-16T02:10:07.176Z,33.28
2023-02-16T02:12:41.817Z,35.70
2023-02-16T02:15:12.237Z,35.00
2023-02-16T02:17:40.312Z,34.42
2023-02-16T02:20:17.358Z,36.10
2023-02-16T02:23:33.763Z,34.78
2023-02-16T02:26:46.665Z,35.70
2023-02-16T02:29:28.839Z,34.55
2023-02-16T02:32:07.205Z,35.95
2023-02-16T02:34:53.649Z,35.03
2023-02-16T02:37:27.710Z,35.85
2023-02-16T02:40:06.209Z,35.90
2023-02-16T02:42:45.299Z,34.13
2023-02-16T02:45:18.123Z,35.90
2023-02-16T02:47:48.170Z,34.80
2023-02-16T02:51:03.555Z,37.15
2023-02-16T02:53:32.730Z,36.75
2023-02-16T02:56:35.989Z,35.30
2023-02-16T02:59:46.217Z,36.00
2023-02-16T03:02:15.615Z,35.47
2023-02-16T03:04:45.823Z,37.87
2023-02-16T03:07:16.230Z,35.15
2023-02-16T03:09:44.834Z,37.15
2023-02-16T03:12:31.712Z,37.03
2023-02-16T03:15:03.870Z,36.47
2023-02-16T03:17:53.706Z,36.33
2023-02-16T03:20:39.875Z,37.80
2023-02-16T03:23:27.237Z,36.17
2023-02-16T03:26:13.521Z,35.67
2023-02-16T03:29:02.604Z,35.37
2023-02-16T03:31:35.725Z,36.47
2023-02-16T03:34:04.358Z,37.50
2023-02-16T03:36:35.724Z,36.80
2023-02-16T03:39:06.069Z,37.13
2023-02-16T03:41:36.082Z,37.30
2023-02-16T03:44:04.143Z,37.07
2023-02-16T03:46:34.053Z,35.30
2023-02-16T03:49:02.200Z,37.30
2023-02-16T03:51:30.229Z,36.37
2023-02-16T03:53:58.271Z,38.13
2023-02-16T03:56:26.388Z,39.60
2023-02-16T03:58:54.635Z,37.03
2023-02-16T04:01:22.692Z,37.90
2023-02-16T04:03:52.200Z,38.10
2023-02-16T04:06:20.264Z,36.93
2023-02-16T04:08:48.300Z,36.55
2023-02-16T04:11:34.010Z,36.92
2023-02-16T04:14:03.087Z,38.85
2023-02-16T04:16:31.143Z,38.13
2023-02-16T04:19:00.564Z,39.23
2023-02-16T04:21:28.681Z,37.10
2023-02-16T04:23:56.702Z,36.78
2023-02-16T04:26:24.790Z,37.25
2023-02-16T04:28:52.913Z,36.88
2023-02-16T04:31:20.996Z,37.33
2023-02-16T04:33:49.154Z,37.33
2023-02-16T04:36:18.525Z,38.47
2023-02-16T04:38:46.587Z,38.33
2023-02-16T04:41:14.576Z,38.78
2023-02-16T04:43:42.637Z,38.40
2023-02-16T04:46:10.688Z,39.05
2023-02-16T04:48:38.752Z,37.85
2023-02-16T04:51:07.334Z,37.38
2023-02-16T04:53:36.757Z,38.90
2023-02-16T04:56:05.284Z,38.78
2023-02-16T04:58:33.287Z,39.45
2023-02-16T05:01:01.457Z,39.08
2023-02-16T05:03:29.730Z,38.25
2023-02-16T05:05:57.933Z,38.42
2023-02-16T05:08:25.941Z,37.50
2023-02-16T05:11:09.235Z,39.55
2023-02-16T05:13:54.569Z,38.75
2023-02-16T05:16:23.247Z,38.03
2023-02-16T05:18:51.321Z,39.85
2023-02-16T05:21:31.791Z,40.45
2023-02-16T05:24:00.329Z,39.22
2023-02-16T05:26:30.100Z,41.45
2023-02-16T05:28:58.838Z,39.45
2023-02-16T05:31:27.995Z,38.83
2023-02-16T05:33:56.557Z,39.40
2023-02-16T05:36:25.129Z,38.67
2023-02-16T05:38:53.179Z,39.97
2023-02-16T05:41:24.466Z,40.22
2023-02-16T05:43:55.841Z,39.42
2023-02-16T05:46:24.895Z,38.78
2023-02-16T05:48:53.208Z,41.38
2023-02-16T05:51:21.964Z,39.42
2023-02-16T05:53:50.019Z,38.47
2023-02-16T05:56:18.165Z,39.88
2023-02-16T05:58:46.393Z,41.15
2023-02-16T06:01:16.116Z,40.30
2023-02-16T06:03:44.491Z,40.40
2023-02-16T06:06:13.313Z,40.97
2023-02-16T06:08:41.600Z,39.53
2023-02-16T06:11:30.285Z,38.10
2023-02-16T06:13:59.596Z,39.63
2023-02-16T06:16:30.069Z,41.15
2023-02-16T06:18:59.792Z,40.05
2023-02-16T06:21:28.666Z,39.28
2023-02-16T06:23:56.892Z,40.28
2023-02-16T06:26:25.184Z,39.53
2023-02-16T06:28:53.646Z,39.47
2023-02-16T06:31:22.532Z,39.42
2023-02-16T06:33:52.458Z,40.88
2023-02-16T06:36:21.386Z,40.22
2023-02-16T06:38:49.572Z,39.60
2023-02-16T06:41:31.290Z,41.55
2023-02-16T06:44:00.726Z,39.88
2023-02-16T06:46:28.900Z,38.90
2023-02-16T06:48:58.676Z,39.08
2023-02-16T06:51:27.252Z,39.95
2023-02-16T06:53:55.436Z,38.38
2023-02-16T06:56:23.922Z,40.45
2023-02-16T06:58:52.176Z,37.20
2023-02-16T07:01:23.221Z,39.35
2023-02-16T07:03:51.702Z,38.08
2023-02-16T07:06:21.828Z,39.75
2023-02-16T07:08:49.821Z,39.40
2023-02-16T07:11:19.320Z,39.13
2023-02-16T07:13:47.875Z,40.33
2023-02-16T07:16:16.606Z,39.63
2023-02-16T07:18:45.089Z,40.42
2023-02-16T07:21:13.380Z,36.10
2023-02-16T07:23:42.794Z,39.15
2023-02-16T07:26:11.152Z,40.65
2023-02-16T07:28:39.265Z,39.72
2023-02-16T07:31:09.214Z,40.38
2023-02-16T07:33:37.304Z,37.75
2023-02-16T07:36:06.125Z,37.95
2023-02-16T07:38:34.519Z,40.30
2023-02-16T07:41:07.876Z,37.90
2023-02-16T07:43:37.486Z,37.20
2023-02-16T07:46:06.268Z,38.40
2023-02-16T07:48:34.371Z,39.25
2023-02-16T07:51:03.026Z,37.88
2023-02-16T07:53:31.383Z,37.90
2023-02-16T07:55:59.462Z,40.22
2023-02-16T07:58:28.975Z,37.83
2023-02-16T08:00:58.351Z,40.45
2023-02-16T08:03:26.536Z,40.28
2023-02-16T08:05:54.737Z,38.33
2023-02-16T08:08:22.772Z,36.72
2023-02-16T08:10:50.847Z,40.10
2023-02-16T08:13:18.867Z,39.53
2023-02-16T08:15:48.287Z,40.75
2023-02-16T08:18:16.357Z,41.47
2023-02-16T08:21:02.852Z,39.30
2023-02-16T08:23:32.200Z,39.17
2023-02-16T08:26:00.274Z,39.92
2023-02-16T08:28:29.591Z,39.38
2023-02-16T08:31:04.445Z,38.90
2023-02-16T08:33:33.160Z,39.28
2023-02-16T08:36:01.177Z,38.80
2023-02-16T08:38:29.200Z,39.53
2023-02-16T08:41:00.680Z,41.00
2023-02-16T08:43:28.737Z,39.50
2023-02-16T08:45:58.105Z,39.85
2023-02-16T08:48:28.840Z,38.08
2023-02-16T08:50:56.845Z,38.83
2023-02-16T08:53:27.928Z,39.97
2023-02-16T08:55:56.949Z,38.55
2023-02-16T08:58:25.578Z,39.42
2023-02-16T09:00:54.443Z,39.38
2023-02-16T09:03:24.654Z,40.38
2023-02-16T09:05:55.192Z,40.35
2023-02-16T09:08:23.352Z,39.72
2023-02-16T09:10:51.742Z,40.58
2023-02-16T09:13:19.775Z,40.63
2023-02-16T09:15:48.455Z,40.90
2023-02-16T09:18:16.618Z,39.95
2023-02-16T09:20:47.122Z,40.85
2023-02-16T09:23:15.327Z,40.75
2023-02-16T09:25:43.448Z,42.50
2023-02-16T09:28:12.225Z,42.35
2023-02-16T09:30:40.829Z,41.15
2023-02-16T09:33:08.930Z,41.17
2023-02-16T09:35:39.799Z,40.22
2023-02-16T09:38:10.878Z,39.40
2023-02-16T09:40:39.080Z,40.95
2023-02-16T09:43:16.339Z,39.72
2023-02-16T09:45:48.614Z,39.33
2023-02-16T09:48:25.568Z,40.20
2023-02-16T09:50:55.622Z,41.88
2023-02-16T09:53:33.736Z,41.33
2023-02-16T09:56:09.888Z,40.17
2023-02-16T09:58:43.704Z,41.55
2023-02-16T10:01:21.522Z,38.85
2023-02-16T10:03:59.743Z,38.08
2023-02-16T10:06:43.001Z,40.38
2023-02-16T10:09:16.507Z,39.33
2023-02-16T10:11:49.062Z,40.22
2023-02-16T10:14:30.805Z,39.15
2023-02-16T10:17:07.893Z,40.28
2023-02-16T10:19:42.237Z,40.97
2023-02-16T10:22:17.665Z,40.97
2023-02-16T10:24:54.089Z,40.50
2023-02-16T10:27:23.378Z,38.90
2023-02-16T10:29:51.734Z,42.20
2023-02-16T10:32:30.695Z,43.67
2023-02-16T10:35:12.135Z,42.00
2023-02-16T10:37:56.910Z,41.75
2023-02-16T10:40:34.421Z,43.17
2023-02-16T10:43:11.451Z,41.38
2023-02-16T10:45:51.999Z,41.83
2023-02-16T10:48:21.758Z,42.58
2023-02-16T10:50:58.718Z,42.67
2023-02-16T10:53:37.807Z,43.40
2023-02-16T10:56:26.174Z,43.47
2023-02-16T10:58:54.973Z,42.15
2023-02-16T11:01:32.875Z,42.28
2023-02-16T11:04:01.250Z,44.17
2023-02-16T11:06:29.811Z,41.78
2023-02-16T11:09:01.246Z,44.50
2023-02-16T11:11:38.397Z,42.50
2023-02-16T11:14:10.058Z,43.53
2023-02-16T11:16:38.513Z,45.28
2023-02-16T11:19:09.961Z,46.30
2023-02-16T11:21:47.417Z,42.65
2023-02-16T11:24:26.200Z,45.13
2023-02-16T11:27:05.409Z,44.40
2023-02-16T11:29:34.868Z,43.80
2023-02-16T11:32:08.879Z,46.83
2023-02-16T11:34:41.306Z,44.88
2023-02-16T11:37:17.026Z,45.78
2023-02-16T11:39:51.744Z,46.90
2023-02-16T11:42:29.637Z,47.08
2023-02-16T11:44:59.301Z,47.63
2023-02-16T11:47:31.513Z,46.33
2023-02-16T11:50:20.314Z,45.65
2023-02-16T11:52:50.020Z,46.10
2023-02-16T11:55:26.949Z,47.75
2023-02-16T11:57:57.360Z,47.58
2023-02-16T12:00:28.061Z,48.25
2023-02-16T12:03:19.138Z,47.70
2023-02-16T12:06:12.855Z,46.88
2023-02-16T12:08:58.202Z,48.63
2023-02-16T12:11:34.146Z,48.17
2023-02-16T12:14:19.920Z,48.22
2023-02-16T12:16:55.911Z,47.58
2023-02-16T12:19:34.778Z,47.75
2023-02-16T12:22:16.617Z,47.80
2023-02-16T12:24:52.485Z,47.83
2023-02-16T12:27:27.308Z,48.10
2023-02-16T12:30:02.878Z,48.03
2023-02-16T12:32:49.690Z,48.72
2023-02-16T12:35:33.526Z,49.92
2023-02-16T12:38:10.690Z,47.97
2023-02-16T12:40:52.063Z,49.33
2023-02-16T12:43:32.345Z,49.00
2023-02-16T12:46:07.747Z,47.90
2023-02-16T12:48:42.734Z,49.25
2023-02-16T12:51:15.266Z,48.15
2023-02-16T12:53:49.188Z,49.25
2023-02-16T12:56:22.317Z,50.13
2023-02-16T12:58:55.554Z,49.92
2023-02-16T13:01:28.815Z,48.53
2023-02-16T13:04:01.042Z,48.58
2023-02-16T13:06:33.967Z,48.90
2023-02-16T13:09:15.275Z,49.08
2023-02-16T13:11:51.096Z,49.25
2023-02-16T13:14:24.603Z,49.28
2023-02-16T13:16:58.063Z,47.50
2023-02-16T13:19:27.076Z,48.28
2023-02-16T13:22:24.302Z,49.45
2023-02-16T13:25:17.339Z,47.63
2023-02-16T13:27:54.955Z,45.65
2023-02-16T13:30:43.109Z,46.13
2023-02-16T13:33:37.801Z,46.67
2023-02-16T13:36:28.217Z,47.70
2023-02-16T13:39:24.150Z,44.58
2023-02-16T13:42:06.563Z,45.45
2023-02-16T13:44:40.184Z,45.35
2023-02-16T13:47:12.855Z,47.15
2023-02-16T13:49:44.101Z,48.42
2023-02-16T13:52:27.629Z,48.47
2023-02-16T13:54:56.065Z,46.15
2023-02-16T13:58:00.298Z,46.25
2023-02-16T14:00:31.429Z,43.80
2023-02-16T14:03:02.210Z,43.92
2023-02-16T14:05:35.366Z,44.45
2023-02-16T14:08:22.286Z,46.03
2023-02-16T14:11:11.529Z,46.85
2023-02-16T14:13:51.681Z,45.55
2023-02-16T14:16:32.932Z,45.20
2023-02-16T14:19:04.373Z,45.67
2023-02-16T14:21:39.935Z,43.83
2023-02-16T14:24:13.841Z,45.47
2023-02-16T14:26:59.376Z,45.85
2023-02-16T14:29:31.540Z,46.47
2023-02-16T14:32:05.190Z,41.78
2023-02-16T14:34:39.125Z,45.05
2023-02-16T14:37:32.969Z,43.60
2023-02-16T14:40:23.755Z,41.67
2023-02-16T14:42:58.351Z,43.60
2023-02-16T14:46:06.508Z,46.50
2023-02-16T14:49:07.795Z,44.58
2023-02-16T14:51:59.849Z,42.92
2023-02-16T14:54:58.275Z,42.40
2023-02-16T14:57:34.475Z,40.55
2023-02-16T15:00:08.535Z,41.22
2023-02-16T15:02:39.814Z,41.40
2023-02-16T15:05:20.180Z,46.33
2023-02-16T15:07:50.871Z,42.20
2023-02-16T15:10:26.821Z,39.38
2023-02-16T15:12:56.567Z,38.55
2023-02-16T15:15:31.462Z,48.05
2023-02-16T15:18:00.251Z,49.38
2023-02-16T15:20:33.314Z,42.40
2023-02-16T15:23:04.646Z,39.63
2023-02-16T15:25:38.525Z,40.03
2023-02-16T15:28:22.032Z,38.83
2023-02-16T15:30:53.820Z,76.75
2023-02-16T15:33:33.740Z,43.65
2023-02-16T15:36:04.998Z,49.13
2023-02-16T15:38:35.181Z,42.95
2023-02-16T15:41:08.056Z,42.85
2023-02-16T15:43:40.202Z,41.20
2023-02-16T15:46:14.993Z,38.92
2023-02-16T15:48:43.347Z,37.90
2023-02-16T15:51:17.516Z,38.28
2023-02-16T15:53:51.511Z,36.95
2023-02-16T15:56:36.121Z,37.92
2023-02-16T15:59:13.390Z,41.50
2023-02-16T16:01:41.820Z,42.92
2023-02-16T16:04:22.958Z,43.85
2023-02-16T16:06:52.321Z,42.75
2023-02-16T16:09:25.582Z,39.00
2023-02-16T16:12:00.991Z,38.45
2023-02-16T16:14:32.275Z,43.10
2023-02-16T16:17:01.157Z,39.47
2023-02-16T16:19:35.198Z,40.10
2023-02-16T16:22:05.547Z,40.42
2023-02-16T16:24:38.998Z,49.55
2023-02-16T16:27:11.062Z,37.35
2023-02-16T16:29:42.538Z,38.17
2023-02-16T16:32:21.421Z,37.28
2023-02-16T16:34:50.695Z,38.95
2023-02-16T16:37:28.918Z,40.95
2023-02-16T16:40:06.754Z,39.83
2023-02-16T16:42:39.390Z,39.60
2023-02-16T16:45:29.282Z,40.15
2023-02-16T16:48:01.759Z,40.47
2023-02-16T16:50:32.650Z,42.63
2023-02-16T16:53:01.503Z,42.17
2023-02-16T16:55:32.923Z,41.90
2023-02-16T16:58:05.635Z,40.40
2023-02-16T17:00:36.833Z,42.22
2023-02-16T17:03:07.947Z,45.75
2023-02-16T17:05:38.440Z,43.03
2023-02-16T17:08:07.648Z,40.55
2023-02-16T17:10:37.076Z,40.65
2023-02-16T17:13:07.681Z,42.83
2023-02-16T17:15:40.551Z,41.33
2023-02-16T17:18:14.529Z,41.45
2023-02-16T17:20:43.060Z,41.25
2023-02-16T17:23:12.856Z,41.78
2023-02-16T17:25:42.536Z,41.97
2023-02-16T17:28:13.148Z,44.20
2023-02-16T17:30:41.896Z,41.35
2023-02-16T17:33:11.283Z,42.05
2023-02-16T17:35:41.766Z,41.33
2023-02-16T17:38:11.824Z,46.45
2023-02-16T17:40:41.519Z,42.28
2023-02-16T17:43:15.731Z,43.75
2023-02-16T17:45:44.524Z,39.80
2023-02-16T17:48:17.403Z,40.70
2023-02-16T17:50:46.113Z,39.03
2023-02-16T17:53:15.894Z,40.95
2023-02-16T17:55:44.979Z,40.97
2023-02-16T17:58:15.157Z,41.08
2023-02-16T18:00:44.931Z,39.72
2023-02-16T18:03:13.479Z,39.13
2023-02-16T18:05:42.135Z,38.15
2023-02-16T18:08:13.168Z,40.67
2023-02-16T18:10:51.024Z,36.40
2023-02-16T18:13:21.319Z,38.35
2023-02-16T18:15:50.641Z,38.17
2023-02-16T18:18:19.896Z,39.83
2023-02-16T18:20:48.713Z,35.97
2023-02-16T18:23:17.595Z,39.67
2023-02-16T18:25:45.871Z,39.15
2023-02-16T18:28:18.510Z,39.55
2023-02-16T18:30:50.622Z,37.78
2023-02-16T18:33:21.134Z,38.05
2023-02-16T18:35:50.243Z,39.17
2023-02-16T18:38:21.352Z,38.90
2023-02-16T18:40:50.973Z,38.78
2023-02-16T18:43:20.199Z,38.33
2023-02-16T18:45:50.743Z,38.30
2023-02-16T18:48:20.195Z,39.85
2023-02-16T18:50:48.790Z,40.53
2023-02-16T18:53:16.952Z,41.53
2023-02-16T18:55:45.317Z,39.95
2023-02-16T18:58:15.902Z,39.90
2023-02-16T19:00:44.334Z,41.42
2023-02-16T19:03:14.079Z,40.35
2023-02-16T19:05:42.664Z,41.33
2023-02-16T19:08:10.896Z,41.45
2023-02-16T19:10:39.324Z,38.75
2023-02-16T19:13:07.586Z,41.45
2023-02-16T19:15:36.371Z,42.78
2023-02-16T19:18:05.061Z,41.85
2023-02-16T19:20:35.464Z,42.08
2023-02-16T19:23:03.771Z,44.58
2023-02-16T19:25:31.990Z,43.75
2023-02-16T19:28:00.277Z,43.97
2023-02-16T19:30:28.747Z,46.83
2023-02-16T19:32:57.358Z,46.25
2023-02-16T19:35:25.668Z,47.70
2023-02-16T19:37:55.942Z,48.75
2023-02-16T19:40:24.252Z,48.58
2023-02-16T19:42:52.611Z,46.28
2023-02-16T19:45:21.164Z,48.60
2023-02-16T19:47:52.122Z,45.08
2023-02-16T19:50:20.530Z,44.40
2023-02-16T19:52:48.777Z,42.15
2023-02-16T19:55:18.608Z,40.67
2023-02-16T19:57:46.887Z,41.47
2023-02-16T20:00:15.879Z,40.25
2023-02-16T20:02:44.248Z,39.75
2023-02-16T20:05:13.614Z,40.50
2023-02-16T20:07:42.100Z,40.80
2023-02-16T20:10:10.741Z,39.78
2023-02-16T20:12:40.521Z,40.08
2023-02-16T20:15:09.726Z,39.55
2023-02-16T20:17:37.969Z,36.45
2023-02-16T20:20:07.550Z,41.15
2023-02-16T20:22:36.157Z,40.25
2023-02-16T20:25:04.471Z,42.15
2023-02-16T20:27:32.749Z,38.13
2023-02-16T20:30:02.961Z,39.92
2023-02-16T20:32:31.578Z,39.10
2023-02-16T20:35:00.340Z,39.63
2023-02-16T20:37:28.780Z,39.58
2023-02-16T20:39:57.414Z,40.03
2023-02-16T20:42:25.807Z,37.65
2023-02-16T20:44:54.114Z,40.75
2023-02-16T20:47:23.773Z,38.83
2023-02-16T20:49:52.091Z,39.47
2023-02-16T20:52:20.396Z,37.53
2023-02-16T20:54:48.816Z,39.25
2023-02-16T20:57:26.419Z,35.92
2023-02-16T20:59:55.768Z,35.35
2023-02-16T21:02:25.440Z,35.97
2023-02-16T21:04:53.817Z,34.72
2023-02-16T21:07:22.112Z,36.95
2023-02-16T21:09:50.339Z,33.38
2023-02-16T21:12:18.593Z,33.20
2023-02-16T21:14:46.891Z,33.50
2023-02-16T21:17:15.584Z,31.98
2023-02-16T21:19:45.531Z,33.22
2023-02-16T21:22:13.814Z,31.33
2023-02-16T21:24:43.388Z,29.95
2023-02-16T21:27:11.875Z,30.45
2023-02-16T21:29:40.288Z,28.77
2023-02-16T21:32:08.685Z,30.80
2023-02-16T21:34:37.157Z,28.40
2023-02-16T21:37:07.010Z,28.25
2023-02-16T21:39:52.847Z,30.40
2023-02-16T21:42:21.121Z,28.67
2023-02-16T21:45:09.732Z,29.48
2023-02-16T21:47:55.580Z,28.23
2023-02-16T21:50:24.068Z,27.23
2023-02-16T21:52:54.216Z,28.08
2023-02-16T21:55:40.631Z,26.98
2023-02-16T21:58:10.835Z,28.17
2023-02-16T22:00:39.343Z,27.08
2023-02-16T22:03:08.458Z,26.50
2023-02-16T22:05:37.408Z,26.88
2023-02-16T22:08:07.693Z,26.75
2023-02-16T22:10:36.268Z,26.70
2023-02-16T22:13:05.201Z,25.90
2023-02-16T22:15:36.240Z,25.88
2023-02-16T22:18:04.694Z,26.10
2023-02-16T22:20:33.278Z,26.38
2023-02-16T22:23:01.565Z,25.42
2023-02-16T22:25:31.315Z,23.73
2023-02-16T22:27:59.665Z,24.05
2023-02-16T22:30:28.037Z,24.40
2023-02-16T22:32:56.421Z,23.70
2023-02-16T22:35:24.752Z,24.40
2023-02-16T22:37:53.081Z,23.83
2023-02-16T22:40:21.587Z,22.60
2023-02-16T22:42:51.278Z,24.08
2023-02-16T22:45:19.746Z,23.02
2023-02-16T22:47:48.063Z,22.45
2023-02-16T22:50:16.342Z,22.08
2023-02-16T22:52:44.709Z,22.15
2023-02-16T22:55:12.999Z,22.70
2023-02-16T22:57:41.319Z,21.92
2023-02-16T23:00:15.242Z,20.70
2023-02-16T23:02:43.585Z,21.38
2023-02-16T23:05:11.869Z,20.90
2023-02-16T23:07:40.140Z,21.70
2023-02-16T23:10:09.119Z,20.90
2023-02-16T23:12:37.460Z,19.65
2023-02-16T23:15:06.243Z,19.45
2023-02-16T23:17:36.444Z,19.27
2023-02-16T23:20:05.485Z,19.45
2023-02-16T23:22:33.800Z,19.67
2023-02-16T23:25:19.200Z,18.77
2023-02-16T23:27:47.550Z,18.30
2023-02-16T23:30:15.974Z,18.80
2023-02-16T23:32:45.767Z,19.25
2023-02-16T23:35:14.161Z,18.45
2023-02-16T23:37:42.448Z,18.17
2023-02-16T23:40:11.717Z,18.17
2023-02-16T23:42:40.215Z,18.25
2023-02-16T23:45:09.317Z,17.50
2023-02-16T23:47:37.591Z,18.55
2023-02-16T23:50:08.458Z,18.38
2023-02-16T23:52:36.787Z,16.35
2023-02-16T23:55:05.456Z,17.13
2023-02-16T23:57:33.711Z,16.95
